createdAt,value
2019-01-24T00:01:03.553Z,48.40
2019-01-24T00:02:08.036Z,48.10
2019-01-24T00:03:13.547Z,48.00
2019-01-24T00:04:19.036Z,52.00
2019-01-24T00:05:24.550Z,47.20
2019-01-24T00:06:30.041Z,47.70
2019-01-24T00:07:36.550Z,50.00
2019-01-24T00:08:41.066Z,47.70
2019-01-24T00:09:46.551Z,45.30
2019-01-24T00:10:52.060Z,47.10
2019-01-24T00:11:57.568Z,47.40
2019-01-24T00:13:03.071Z,49.00
2019-01-24T00:14:09.604Z,47.10
2019-01-24T00:15:14.080Z,49.20
2019-01-24T00:16:19.602Z,45.80
2019-01-24T00:17:25.075Z,46.70
2019-01-24T00:18:30.634Z,47.20
2019-01-24T00:19:36.062Z,47.50
2019-01-24T00:20:42.577Z,49.10
2019-01-24T00:21:47.074Z,48.40
2019-01-24T00:22:52.576Z,47.70
2019-01-24T00:23:58.065Z,48.50
2019-01-24T00:25:03.586Z,47.60
2019-01-24T00:26:09.080Z,45.80
2019-01-24T00:27:15.607Z,47.30
2019-01-24T00:28:20.088Z,47.70
2019-01-24T00:29:25.554Z,49.30
2019-01-24T00:30:31.073Z,46.60
2019-01-24T00:31:36.610Z,48.60
2019-01-24T00:32:42.073Z,49.30
2019-01-24T00:33:48.620Z,49.60
2019-01-24T00:34:53.082Z,49.50
2019-01-24T00:35:58.552Z,49.40
2019-01-24T00:37:04.078Z,50.00
2019-01-24T00:38:09.597Z,48.70
2019-01-24T00:39:15.089Z,47.90
2019-01-24T00:40:21.586Z,50.20
2019-01-24T00:41:26.086Z,48.00
2019-01-24T00:42:31.594Z,48.60
2019-01-24T00:43:37.094Z,48.50
2019-01-24T00:44:42.607Z,48.80
2019-01-24T00:45:48.083Z,47.00
2019-01-24T00:46:54.616Z,50.10
2019-01-24T00:47:59.107Z,50.50
2019-01-24T00:49:04.603Z,50.50
2019-01-24T00:50:10.085Z,49.40
2019-01-24T00:51:15.609Z,49.20
2019-01-24T00:52:21.088Z,46.90
2019-01-24T00:53:27.631Z,49.60
2019-01-24T00:54:32.116Z,47.10
2019-01-24T00:55:37.613Z,49.90
2019-01-24T00:56:43.107Z,49.90
2019-01-24T00:57:48.604Z,48.30
2019-01-24T00:58:54.117Z,48.70
2019-01-24T01:00:00.601Z,47.90
2019-01-24T01:01:05.130Z,47.50
2019-01-24T01:02:10.616Z,49.10
2019-01-24T01:03:16.134Z,45.30
2019-01-24T01:04:21.617Z,47.30
2019-01-24T01:05:27.126Z,50.10
2019-01-24T01:06:33.617Z,48.60
2019-01-24T01:07:38.123Z,50.90
2019-01-24T01:08:43.620Z,48.00
2019-01-24T01:09:49.121Z,47.70
2019-01-24T01:10:54.631Z,50.60
2019-01-24T01:12:00.143Z,47.80
2019-01-24T01:13:06.647Z,50.20
2019-01-24T01:14:11.139Z,48.20
2019-01-24T01:15:16.649Z,50.00
2019-01-24T01:16:22.141Z,49.80
2019-01-24T01:17:27.626Z,49.00
2019-01-24T01:18:33.138Z,48.80
2019-01-24T01:19:39.651Z,48.40
2019-01-24T01:20:44.158Z,49.40
2019-01-24T01:21:49.644Z,49.80
2019-01-24T01:22:55.143Z,53.70
2019-01-24T01:24:00.648Z,51.00
2019-01-24T01:25:06.141Z,48.40
2019-01-24T01:26:12.678Z,48.60
2019-01-24T01:27:17.141Z,49.10
2019-01-24T01:28:22.663Z,48.40
2019-01-24T01:29:28.173Z,51.80
2019-01-24T01:30:33.629Z,50.50
2019-01-24T01:31:39.171Z,50.20
2019-01-24T01:32:45.671Z,49.60
2019-01-24T01:33:50.155Z,50.10
2019-01-24T01:34:55.695Z,50.50
2019-01-24T01:36:01.160Z,53.00
2019-01-24T01:37:06.687Z,51.80
2019-01-24T01:38:12.164Z,48.70
2019-01-24T01:39:18.651Z,51.20
2019-01-24T01:40:23.184Z,48.90
2019-01-24T01:41:28.663Z,49.00
2019-01-24T01:42:34.179Z,49.10
2019-01-24T01:43:39.677Z,50.00
2019-01-24T01:44:45.169Z,48.30
2019-01-24T01:45:51.689Z,49.00
2019-01-24T01:46:56.198Z,51.00
2019-01-24T01:48:01.671Z,49.00
2019-01-24T01:49:07.169Z,49.60
2019-01-24T01:50:12.672Z,50.60
2019-01-24T01:51:18.183Z,49.40
2019-01-24T01:52:24.694Z,50.20
2019-01-24T01:53:29.184Z,48.80
2019-01-24T01:54:34.672Z,48.30
2019-01-24T01:55:40.204Z,49.00
2019-01-24T01:56:45.673Z,48.30
2019-01-24T01:57:51.186Z,50.20
2019-01-24T01:58:57.678Z,47.80
2019-01-24T02:00:02.191Z,50.00
2019-01-24T02:01:07.691Z,49.20
2019-01-24T02:02:13.215Z,50.60
2019-01-24T02:03:18.680Z,48.10
2019-01-24T02:04:24.181Z,51.40
2019-01-24T02:05:30.697Z,48.60
2019-01-24T02:06:35.194Z,52.30
2019-01-24T02:07:40.690Z,48.30
2019-01-24T02:08:46.175Z,49.00
2019-01-24T02:09:51.675Z,48.20
2019-01-24T02:10:57.206Z,50.00
2019-01-24T02:12:03.736Z,48.80
2019-01-24T02:13:08.214Z,49.90
2019-01-24T02:14:13.709Z,48.80
2019-01-24T02:15:19.207Z,50.00
2019-01-24T02:16:24.722Z,49.70
2019-01-24T02:17:30.203Z,48.70
2019-01-24T02:18:36.714Z,50.40
2019-01-24T02:19:41.212Z,50.20
2019-01-24T02:20:46.694Z,49.60
2019-01-24T02:21:52.203Z,49.70
2019-01-24T02:22:57.695Z,47.30
2019-01-24T02:24:03.193Z,51.10
2019-01-24T02:25:09.709Z,51.20
2019-01-24T02:26:14.204Z,48.40
2019-01-24T02:27:19.705Z,49.40
2019-01-24T02:28:25.224Z,49.50
2019-01-24T02:29:30.719Z,50.10
2019-01-24T02:30:36.228Z,49.60
2019-01-24T02:31:42.735Z,48.00
2019-01-24T02:32:47.220Z,51.10
2019-01-24T02:33:52.716Z,50.30
2019-01-24T02:34:58.222Z,48.90
2019-01-24T02:36:03.715Z,48.70
2019-01-24T02:37:09.210Z,50.20
2019-01-24T02:38:15.720Z,49.80
2019-01-24T02:39:20.238Z,48.20
2019-01-24T02:40:25.744Z,49.90
2019-01-24T02:41:31.200Z,50.10
2019-01-24T02:42:36.749Z,48.90
2019-01-24T02:43:42.237Z,52.30
2019-01-24T02:44:48.733Z,52.10
2019-01-24T02:45:53.239Z,54.30
2019-01-24T02:46:58.743Z,49.60
2019-01-24T02:48:04.210Z,49.40
2019-01-24T02:49:09.727Z,50.60
2019-01-24T02:50:15.248Z,51.60
2019-01-24T02:51:21.741Z,49.80
2019-01-24T02:52:26.228Z,47.60
2019-01-24T02:53:31.724Z,49.40
2019-01-24T02:54:37.226Z,50.20
2019-01-24T02:55:42.729Z,52.70
2019-01-24T02:56:48.252Z,48.60
2019-01-24T02:57:54.770Z,51.70
2019-01-24T02:58:59.255Z,50.30
2019-01-24T03:00:04.764Z,48.70
2019-01-24T03:01:10.236Z,47.20
2019-01-24T03:02:15.749Z,49.50
2019-01-24T03:03:21.261Z,50.20
2019-01-24T03:04:27.765Z,50.80
2019-01-24T03:05:32.244Z,50.70
2019-01-24T03:06:37.760Z,52.50
2019-01-24T03:07:43.242Z,50.30
2019-01-24T03:08:48.795Z,50.10
2019-01-24T03:09:54.262Z,51.40
2019-01-24T03:11:00.761Z,51.40
2019-01-24T03:12:05.287Z,49.80
2019-01-24T03:13:10.761Z,48.40
2019-01-24T03:14:16.257Z,52.70
2019-01-24T03:15:21.765Z,50.20
2019-01-24T03:16:27.281Z,49.40
2019-01-24T03:17:33.772Z,51.20
2019-01-24T03:18:38.259Z,50.20
2019-01-24T03:19:43.751Z,51.70
2019-01-24T03:20:49.260Z,49.90
2019-01-24T03:21:54.761Z,50.90
2019-01-24T03:23:00.253Z,49.10
2019-01-24T03:24:06.775Z,50.90
2019-01-24T03:25:11.277Z,49.90
2019-01-24T03:26:16.774Z,51.10
2019-01-24T03:27:22.291Z,50.00
2019-01-24T03:28:27.788Z,49.20
2019-01-24T03:29:33.280Z,48.90
2019-01-24T03:30:39.790Z,52.90
2019-01-24T03:31:44.278Z,49.60
2019-01-24T03:32:49.776Z,50.20
2019-01-24T03:33:55.278Z,50.80
2019-01-24T03:35:04.333Z,48.60
2019-01-24T03:36:06.283Z,50.30
2019-01-24T03:37:12.803Z,51.60
2019-01-24T03:38:17.279Z,52.00
2019-01-24T03:39:22.797Z,50.90
2019-01-24T03:40:28.280Z,49.80
2019-01-24T03:41:33.788Z,51.10
2019-01-24T03:42:39.294Z,52.10
2019-01-24T03:43:45.803Z,52.00
2019-01-24T03:44:50.301Z,52.80
2019-01-24T03:45:55.790Z,51.70
2019-01-24T03:47:01.309Z,51.20
2019-01-24T03:48:06.795Z,54.00
2019-01-24T03:49:12.291Z,52.30
2019-01-24T03:50:18.804Z,55.10
2019-01-24T03:51:23.287Z,52.70
2019-01-24T03:52:28.790Z,50.20
2019-01-24T03:53:34.298Z,54.20
2019-01-24T03:54:39.803Z,52.10
2019-01-24T03:55:45.302Z,55.90
2019-01-24T03:56:51.827Z,56.40
2019-01-24T03:57:56.311Z,54.80
2019-01-24T03:59:01.820Z,55.30
2019-01-24T04:00:07.315Z,58.40
2019-01-24T04:01:12.818Z,57.00
2019-01-24T04:02:18.341Z,59.60
2019-01-24T04:03:24.827Z,58.40
2019-01-24T04:04:29.319Z,56.50
2019-01-24T04:05:34.812Z,55.00
2019-01-24T04:06:40.304Z,53.30
2019-01-24T04:07:45.801Z,53.60
2019-01-24T04:08:51.305Z,56.80
2019-01-24T04:09:57.808Z,54.20
2019-01-24T04:11:02.308Z,57.00
2019-01-24T04:12:08.527Z,54.30
2019-01-24T04:13:13.320Z,55.00
2019-01-24T04:14:18.779Z,54.30
2019-01-24T04:15:24.341Z,55.90
2019-01-24T04:16:30.836Z,57.80
2019-01-24T04:17:35.361Z,59.60
2019-01-24T04:18:40.824Z,56.50
2019-01-24T04:19:46.326Z,57.60
2019-01-24T04:20:51.834Z,56.50
2019-01-24T04:21:57.294Z,54.80
2019-01-24T04:23:03.831Z,56.80
2019-01-24T04:24:08.332Z,58.80
2019-01-24T04:25:13.847Z,55.00
2019-01-24T04:26:19.331Z,53.80
2019-01-24T04:27:24.862Z,54.80
2019-01-24T04:28:30.333Z,53.30
2019-01-24T04:29:36.850Z,56.20
2019-01-24T04:30:41.325Z,57.20
2019-01-24T04:31:46.827Z,57.90
2019-01-24T04:32:52.338Z,54.20
2019-01-24T04:33:57.823Z,58.00
2019-01-24T04:35:03.303Z,56.20
2019-01-24T04:36:09.819Z,55.70
2019-01-24T04:37:14.336Z,58.10
2019-01-24T04:38:19.832Z,57.30
2019-01-24T04:39:25.338Z,56.90
2019-01-24T04:40:30.857Z,55.60
2019-01-24T04:41:36.337Z,56.50
2019-01-24T04:42:42.854Z,53.00
2019-01-24T04:43:47.351Z,55.70
2019-01-24T04:44:52.856Z,57.40
2019-01-24T04:45:58.340Z,55.80
2019-01-24T04:47:03.846Z,58.20
2019-01-24T04:48:09.341Z,54.10
2019-01-24T04:49:15.857Z,54.40
2019-01-24T04:50:20.354Z,54.80
2019-01-24T04:51:25.851Z,55.70
2019-01-24T04:52:31.342Z,53.50
2019-01-24T04:53:36.836Z,56.70
2019-01-24T04:54:42.285Z,54.60
2019-01-24T04:55:48.862Z,54.90
2019-01-24T04:56:53.316Z,54.20
2019-01-24T04:57:58.882Z,54.20
2019-01-24T04:59:04.358Z,52.70
2019-01-24T05:00:09.854Z,52.00
2019-01-24T05:01:15.366Z,55.10
2019-01-24T05:02:21.927Z,53.20
2019-01-24T05:03:26.358Z,54.50
2019-01-24T05:04:31.848Z,54.60
2019-01-24T05:05:37.370Z,53.10
2019-01-24T05:06:42.856Z,54.80
2019-01-24T05:07:48.329Z,55.00
2019-01-24T05:08:54.849Z,56.00
2019-01-24T05:09:59.378Z,57.70
2019-01-24T05:11:04.875Z,55.40
2019-01-24T05:12:10.367Z,53.30
2019-01-24T05:13:15.868Z,54.80
2019-01-24T05:14:21.343Z,56.70
2019-01-24T05:15:27.881Z,56.10
2019-01-24T05:16:32.393Z,53.20
2019-01-24T05:17:37.861Z,55.40
2019-01-24T05:18:43.359Z,53.10
2019-01-24T05:19:48.854Z,57.70
2019-01-24T05:20:54.362Z,53.00
2019-01-24T05:22:00.887Z,57.80
2019-01-24T05:23:05.364Z,56.10
2019-01-24T05:24:10.893Z,56.20
2019-01-24T05:25:16.368Z,53.80
2019-01-24T05:26:21.875Z,55.30
2019-01-24T05:27:27.366Z,53.80
2019-01-24T05:28:33.882Z,55.80
2019-01-24T05:29:38.375Z,56.90
2019-01-24T05:30:43.882Z,58.10
2019-01-24T05:31:49.368Z,54.80
2019-01-24T05:32:55.446Z,55.50
2019-01-24T05:34:00.392Z,58.30
2019-01-24T05:35:06.888Z,55.20
2019-01-24T05:36:11.383Z,59.80
2019-01-24T05:37:16.886Z,57.70
2019-01-24T05:38:22.388Z,58.70
2019-01-24T05:39:27.912Z,55.50
2019-01-24T05:40:33.402Z,57.70
2019-01-24T05:41:39.902Z,57.80
2019-01-24T05:42:44.389Z,57.20
2019-01-24T05:43:49.900Z,56.50
2019-01-24T05:44:55.395Z,57.50
2019-01-24T05:46:00.896Z,59.00
2019-01-24T05:47:06.397Z,54.90
2019-01-24T05:48:12.890Z,57.10
2019-01-24T05:49:17.389Z,57.50
2019-01-24T05:50:24.431Z,59.20
2019-01-24T05:51:28.402Z,56.40
2019-01-24T05:52:33.928Z,58.40
2019-01-24T05:53:39.401Z,57.40
2019-01-24T05:54:45.912Z,58.10
2019-01-24T05:55:50.409Z,54.60
2019-01-24T05:56:55.929Z,57.50
2019-01-24T05:58:01.407Z,55.10
2019-01-24T05:59:06.905Z,60.70
2019-01-24T06:00:12.399Z,57.20
2019-01-24T06:01:18.927Z,56.20
2019-01-24T06:02:23.409Z,57.00
2019-01-24T06:03:28.892Z,58.30
2019-01-24T06:04:34.377Z,57.90
2019-01-24T06:05:41.819Z,57.60
2019-01-24T06:06:45.406Z,62.50
2019-01-24T06:07:51.929Z,59.60
2019-01-24T06:08:56.415Z,57.20
2019-01-24T06:10:01.912Z,56.60
2019-01-24T06:11:07.432Z,57.00
2019-01-24T06:12:12.908Z,58.50
2019-01-24T06:13:18.446Z,56.20
2019-01-24T06:14:24.926Z,61.10
2019-01-24T06:15:29.427Z,59.50
2019-01-24T06:16:34.936Z,58.10
2019-01-24T06:17:40.399Z,58.50
2019-01-24T06:18:45.916Z,58.40
2019-01-24T06:19:51.451Z,58.70
2019-01-24T06:20:57.932Z,58.00
2019-01-24T06:22:02.404Z,58.90
2019-01-24T06:23:08.010Z,62.40
2019-01-24T06:24:13.423Z,60.70
2019-01-24T06:25:18.927Z,59.10
2019-01-24T06:26:24.440Z,59.30
2019-01-24T06:27:30.932Z,57.30
2019-01-24T06:28:35.427Z,59.00
2019-01-24T06:29:40.911Z,61.40
2019-01-24T06:30:46.430Z,60.30
2019-01-24T06:31:51.932Z,63.50
2019-01-24T06:32:57.440Z,62.80
2019-01-24T06:34:03.944Z,62.50
2019-01-24T06:35:08.439Z,58.00
2019-01-24T06:36:13.950Z,56.20
2019-01-24T06:37:19.436Z,57.50
2019-01-24T06:38:24.947Z,62.20
2019-01-24T06:39:30.393Z,59.10
2019-01-24T06:40:36.940Z,54.90
2019-01-24T06:41:41.469Z,60.00
2019-01-24T06:42:46.953Z,56.00
2019-01-24T06:43:52.462Z,57.50
2019-01-24T06:44:57.955Z,56.90
2019-01-24T06:46:03.451Z,58.40
2019-01-24T06:47:09.959Z,58.10
2019-01-24T06:48:14.479Z,56.60
2019-01-24T06:49:19.935Z,58.40
2019-01-24T06:50:25.459Z,55.60
2019-01-24T06:51:30.903Z,58.60
2019-01-24T06:52:36.460Z,57.10
2019-01-24T06:53:42.973Z,56.70
2019-01-24T06:54:47.458Z,60.30
2019-01-24T06:55:52.963Z,59.60
2019-01-24T06:56:58.471Z,60.20
2019-01-24T06:58:03.965Z,58.00
2019-01-24T06:59:09.464Z,57.70
2019-01-24T07:00:15.990Z,58.00
2019-01-24T07:01:20.460Z,55.70
2019-01-24T07:02:25.975Z,57.50
2019-01-24T07:03:31.462Z,56.80
2019-01-24T07:04:36.969Z,57.00
2019-01-24T07:05:42.479Z,57.10
2019-01-24T07:06:48.996Z,60.00
2019-01-24T07:07:53.475Z,58.40
2019-01-24T07:08:58.971Z,60.80
2019-01-24T07:10:04.484Z,61.90
2019-01-24T07:11:09.989Z,62.80
2019-01-24T07:12:15.486Z,60.40
2019-01-24T07:13:21.950Z,57.70
2019-01-24T07:14:26.461Z,57.90
2019-01-24T07:15:31.974Z,61.90
2019-01-24T07:16:37.484Z,59.50
2019-01-24T07:17:42.972Z,58.50
2019-01-24T07:18:48.500Z,58.50
2019-01-24T07:19:54.961Z,59.20
2019-01-24T07:20:59.464Z,59.90
2019-01-24T07:22:04.975Z,58.80
2019-01-24T07:23:10.500Z,59.30
2019-01-24T07:24:15.990Z,56.70
2019-01-24T07:25:21.490Z,57.30
2019-01-24T07:26:28.024Z,59.30
2019-01-24T07:27:32.493Z,56.80
2019-01-24T07:28:37.988Z,58.00
2019-01-24T07:29:43.497Z,59.90
2019-01-24T07:30:48.990Z,57.30
2019-01-24T07:31:54.497Z,59.00
2019-01-24T07:33:00.995Z,59.50
2019-01-24T07:34:05.451Z,58.50
2019-01-24T07:35:10.989Z,60.40
2019-01-24T07:36:16.477Z,58.90
2019-01-24T07:37:22.003Z,57.20
2019-01-24T07:38:27.514Z,59.30
2019-01-24T07:39:34.026Z,56.50
2019-01-24T07:40:38.498Z,58.90
2019-01-24T07:41:44.009Z,59.30
2019-01-24T07:42:49.508Z,59.30
2019-01-24T07:43:55.011Z,56.60
2019-01-24T07:45:00.519Z,60.80
2019-01-24T07:46:07.059Z,58.90
2019-01-24T07:47:11.508Z,61.00
2019-01-24T07:48:17.043Z,58.60
2019-01-24T07:49:22.513Z,59.40
2019-01-24T07:50:28.014Z,60.40
2019-01-24T07:51:33.518Z,59.10
2019-01-24T07:52:40.034Z,59.20
2019-01-24T07:53:44.521Z,60.10
2019-01-24T07:54:50.027Z,58.50
2019-01-24T07:55:55.512Z,58.90
2019-01-24T07:57:01.035Z,61.10
2019-01-24T07:58:06.493Z,60.50
2019-01-24T07:59:13.022Z,59.70
2019-01-24T08:00:17.518Z,60.30
2019-01-24T08:01:23.016Z,59.40
2019-01-24T08:02:28.486Z,58.90
2019-01-24T08:03:34.043Z,61.90
2019-01-24T08:04:39.541Z,60.20
2019-01-24T08:05:46.022Z,61.80
2019-01-24T08:06:50.536Z,59.90
2019-01-24T08:07:56.029Z,61.30
2019-01-24T08:09:01.554Z,63.90
2019-01-24T08:10:07.041Z,67.60
2019-01-24T08:11:12.538Z,64.50
2019-01-24T08:12:19.047Z,66.50
2019-01-24T08:13:23.536Z,67.60
2019-01-24T08:14:29.050Z,66.90
2019-01-24T08:15:34.537Z,66.50
2019-01-24T08:16:40.053Z,63.10
2019-01-24T08:17:45.529Z,68.00
2019-01-24T08:18:52.056Z,67.70
2019-01-24T08:19:56.559Z,67.80
2019-01-24T08:21:02.044Z,64.30
2019-01-24T08:22:07.642Z,64.90
2019-01-24T08:23:13.048Z,62.90
2019-01-24T08:24:18.565Z,67.10
2019-01-24T08:25:25.065Z,65.50
2019-01-24T08:26:29.520Z,65.90
2019-01-24T08:27:35.045Z,67.60
2019-01-24T08:28:40.542Z,67.00
2019-01-24T08:29:46.068Z,64.10
2019-01-24T08:30:51.544Z,63.20
2019-01-24T08:31:58.047Z,67.10
2019-01-24T08:33:02.549Z,68.20
2019-01-24T08:34:08.055Z,64.90
2019-01-24T08:35:13.572Z,66.80
2019-01-24T08:36:19.053Z,66.40
2019-01-24T08:37:24.553Z,65.50
2019-01-24T08:38:31.070Z,64.80
2019-01-24T08:39:35.576Z,65.10
2019-01-24T08:40:41.070Z,65.70
2019-01-24T08:41:46.547Z,66.60
2019-01-24T08:42:52.048Z,66.90
2019-01-24T08:43:57.579Z,69.60
2019-01-24T08:45:04.054Z,66.80
2019-01-24T08:46:08.545Z,70.00
2019-01-24T08:47:14.055Z,68.20
2019-01-24T08:48:19.566Z,70.90
2019-01-24T08:49:25.058Z,69.80
2019-01-24T08:50:30.559Z,71.30
2019-01-24T08:51:37.125Z,68.30
2019-01-24T08:52:41.565Z,69.90
2019-01-24T08:53:47.084Z,68.90
2019-01-24T08:54:52.585Z,70.20
2019-01-24T08:55:58.061Z,70.80
2019-01-24T08:57:03.579Z,70.40
2019-01-24T08:58:10.077Z,70.60
2019-01-24T08:59:14.578Z,72.80
2019-01-24T09:00:20.085Z,72.90
2019-01-24T09:01:25.557Z,72.20
2019-01-24T09:02:31.136Z,73.90
2019-01-24T09:03:36.573Z,74.00
2019-01-24T09:04:43.089Z,72.50
2019-01-24T09:05:47.562Z,71.50
2019-01-24T09:06:53.086Z,73.20
2019-01-24T09:07:58.579Z,73.90
2019-01-24T09:09:04.094Z,71.20
2019-01-24T09:10:09.586Z,71.70
2019-01-24T09:11:16.092Z,72.20
2019-01-24T09:12:20.577Z,70.10
2019-01-24T09:13:26.067Z,71.40
2019-01-24T09:14:31.574Z,69.90
2019-01-24T09:15:37.071Z,73.60
2019-01-24T09:16:42.566Z,68.70
2019-01-24T09:17:49.089Z,70.50
2019-01-24T09:18:53.526Z,68.80
2019-01-24T09:19:59.075Z,69.70
2019-01-24T09:21:04.573Z,68.90
2019-01-24T09:22:10.076Z,71.20
2019-01-24T09:23:15.589Z,71.80
2019-01-24T09:24:22.113Z,73.40
2019-01-24T09:25:26.583Z,69.50
2019-01-24T09:26:32.071Z,72.80
2019-01-24T09:27:37.584Z,71.70
2019-01-24T09:28:43.075Z,73.00
2019-01-24T09:29:48.592Z,73.00
2019-01-24T09:30:55.073Z,69.60
2019-01-24T09:31:59.568Z,73.30
2019-01-24T09:33:05.109Z,73.80
2019-01-24T09:34:10.579Z,76.50
2019-01-24T09:35:16.107Z,71.50
2019-01-24T09:36:21.570Z,78.60
2019-01-24T09:37:28.119Z,74.90
2019-01-24T09:38:32.601Z,78.50
2019-01-24T09:39:38.091Z,72.50
2019-01-24T09:40:43.609Z,73.90
2019-01-24T09:41:49.105Z,73.90
2019-01-24T09:42:54.608Z,74.70
2019-01-24T09:44:01.091Z,71.50
2019-01-24T09:45:05.598Z,74.10
2019-01-24T09:46:11.098Z,76.10
2019-01-24T09:47:16.587Z,74.90
2019-01-24T09:48:22.094Z,74.30
2019-01-24T09:49:27.613Z,76.90
2019-01-24T09:50:34.113Z,75.40
2019-01-24T09:51:38.600Z,77.30
2019-01-24T09:52:44.118Z,81.40
2019-01-24T09:53:49.622Z,76.40
2019-01-24T09:54:55.114Z,73.20
2019-01-24T09:56:00.594Z,74.10
2019-01-24T09:57:07.157Z,73.50
2019-01-24T09:58:11.556Z,75.90
2019-01-24T09:59:17.151Z,76.10
2019-01-24T10:00:22.962Z,74.10
2019-01-24T10:01:28.083Z,73.90
2019-01-24T10:02:33.601Z,74.60
2019-01-24T10:03:40.114Z,71.60
2019-01-24T10:04:44.587Z,74.80
2019-01-24T10:05:50.119Z,70.40
2019-01-24T10:06:55.595Z,74.20
2019-01-24T10:08:01.075Z,75.10
2019-01-24T10:09:06.597Z,74.60
2019-01-24T10:10:13.117Z,73.20
2019-01-24T10:11:23.291Z,71.80
2019-01-24T10:12:23.098Z,73.40
2019-01-24T10:13:28.610Z,72.80
2019-01-24T10:14:34.104Z,74.60
2019-01-24T10:15:39.607Z,73.00
2019-01-24T10:16:46.083Z,75.10
2019-01-24T10:17:50.623Z,73.30
2019-01-24T10:18:56.068Z,73.30
2019-01-24T10:20:01.611Z,74.40
2019-01-24T10:21:07.121Z,78.90
2019-01-24T10:22:12.604Z,75.80
2019-01-24T10:23:19.110Z,76.30
2019-01-24T10:24:23.672Z,75.00
2019-01-24T10:25:29.036Z,74.50
2019-01-24T10:26:34.623Z,70.70
2019-01-24T10:27:40.096Z,74.70
2019-01-24T10:28:45.597Z,74.60
2019-01-24T10:29:52.128Z,72.60
2019-01-24T10:30:56.601Z,72.00
2019-01-24T10:32:02.129Z,74.50
2019-01-24T10:33:07.591Z,73.40
2019-01-24T10:34:13.120Z,72.80
2019-01-24T10:35:18.594Z,71.30
2019-01-24T10:36:25.152Z,75.00
2019-01-24T10:37:29.631Z,70.80
2019-01-24T10:38:35.132Z,70.40
2019-01-24T10:39:40.615Z,71.50
2019-01-24T10:40:46.153Z,70.10
2019-01-24T10:41:51.699Z,72.20
2019-01-24T10:42:58.129Z,74.30
2019-01-24T10:44:02.626Z,73.10
2019-01-24T10:45:08.139Z,67.20
2019-01-24T10:46:13.633Z,72.50
2019-01-24T10:47:19.125Z,69.90
2019-01-24T10:48:24.623Z,70.10
2019-01-24T10:49:31.169Z,72.40
2019-01-24T10:50:35.630Z,72.90
2019-01-24T10:51:41.159Z,73.60
2019-01-24T10:52:46.663Z,69.20
2019-01-24T10:53:52.134Z,72.10
2019-01-24T10:54:57.616Z,69.80
2019-01-24T10:56:04.148Z,66.60
2019-01-24T10:57:08.647Z,72.30
2019-01-24T10:58:14.166Z,68.40
2019-01-24T10:59:19.635Z,68.40
2019-01-24T11:00:25.166Z,67.80
2019-01-24T11:01:30.659Z,73.50
2019-01-24T11:02:37.157Z,69.30
2019-01-24T11:03:41.646Z,70.00
2019-01-24T11:04:47.144Z,68.50
2019-01-24T11:05:52.627Z,76.10
2019-01-24T11:06:58.161Z,72.50
2019-01-24T11:08:03.669Z,72.00
2019-01-24T11:09:10.172Z,68.90
2019-01-24T11:10:14.665Z,69.20
2019-01-24T11:11:20.160Z,74.60
2019-01-24T11:12:25.692Z,72.20
2019-01-24T11:13:31.154Z,70.10
2019-01-24T11:14:36.664Z,73.80
2019-01-24T11:15:43.173Z,69.70
2019-01-24T11:16:47.672Z,70.60
2019-01-24T11:17:53.173Z,73.20
2019-01-24T11:18:58.685Z,72.30
2019-01-24T11:20:04.187Z,69.00
2019-01-24T11:21:09.682Z,72.30
2019-01-24T11:22:16.182Z,75.50
2019-01-24T11:23:20.708Z,66.30
2019-01-24T11:24:26.191Z,67.90
2019-01-24T11:25:31.680Z,70.60
2019-01-24T11:26:37.201Z,69.40
2019-01-24T11:27:42.692Z,70.50
2019-01-24T11:28:49.177Z,70.40
2019-01-24T11:29:53.691Z,72.50
2019-01-24T11:30:59.195Z,75.30
2019-01-24T11:32:04.694Z,73.90
2019-01-24T11:33:10.204Z,73.80
2019-01-24T11:34:15.999Z,75.80
2019-01-24T11:35:22.212Z,74.30
2019-01-24T11:36:26.713Z,74.70
2019-01-24T11:37:32.193Z,74.10
2019-01-24T11:38:37.694Z,74.00
2019-01-24T11:39:43.203Z,71.40
2019-01-24T11:40:48.711Z,73.60
2019-01-24T11:41:55.228Z,68.90
2019-01-24T11:42:59.691Z,72.20
2019-01-24T11:44:05.202Z,72.70
2019-01-24T11:45:10.704Z,71.90
2019-01-24T11:46:16.176Z,72.80
2019-01-24T11:47:21.690Z,71.00
2019-01-24T11:48:28.247Z,70.90
2019-01-24T11:49:32.726Z,71.70
2019-01-24T11:50:38.224Z,77.10
2019-01-24T11:51:43.716Z,75.50
2019-01-24T11:52:49.228Z,78.50
2019-01-24T11:53:54.695Z,77.80
2019-01-24T11:55:01.233Z,77.30
2019-01-24T11:56:06.372Z,76.80
2019-01-24T11:57:11.235Z,79.00
2019-01-24T11:58:16.669Z,78.50
2019-01-24T11:59:22.218Z,76.20
2019-01-24T12:00:27.719Z,78.20
2019-01-24T12:01:34.210Z,78.30
2019-01-24T12:02:39.810Z,79.70
2019-01-24T12:03:44.243Z,78.00
2019-01-24T12:04:49.739Z,78.70
2019-01-24T12:05:55.241Z,75.20
2019-01-24T12:07:04.239Z,79.30
2019-01-24T12:08:07.249Z,80.80
2019-01-24T12:09:11.751Z,80.40
2019-01-24T12:10:17.240Z,81.00
2019-01-24T12:11:22.740Z,78.60
2019-01-24T12:12:28.260Z,78.40
2019-01-24T12:13:33.747Z,78.20
2019-01-24T12:14:40.257Z,80.00
2019-01-24T12:15:44.743Z,77.50
2019-01-24T12:16:50.253Z,76.40
2019-01-24T12:17:55.778Z,77.20
2019-01-24T12:19:01.216Z,74.50
2019-01-24T12:20:06.758Z,78.30
2019-01-24T12:21:13.261Z,79.30
2019-01-24T12:22:17.720Z,78.70
2019-01-24T12:23:23.240Z,77.50
2019-01-24T12:24:28.755Z,77.60
2019-01-24T12:25:34.249Z,78.50
2019-01-24T12:26:39.770Z,81.50
2019-01-24T12:27:46.267Z,77.70
2019-01-24T12:28:50.770Z,80.20
2019-01-24T12:29:56.251Z,81.20
2019-01-24T12:31:01.763Z,81.80
2019-01-24T12:32:07.269Z,85.80
2019-01-24T12:33:12.789Z,83.30
2019-01-24T12:34:19.287Z,83.70
2019-01-24T12:35:23.765Z,81.50
2019-01-24T12:36:29.261Z,79.90
2019-01-24T12:37:34.768Z,85.50
2019-01-24T12:38:40.297Z,80.20
2019-01-24T12:39:45.791Z,82.60
2019-01-24T12:40:52.304Z,83.90
2019-01-24T12:41:56.777Z,80.30
2019-01-24T12:43:02.287Z,84.30
2019-01-24T12:44:07.745Z,83.60
2019-01-24T12:45:13.277Z,86.60
2019-01-24T12:46:18.754Z,86.80
2019-01-24T12:47:25.332Z,80.70
2019-01-24T12:48:29.780Z,85.50
2019-01-24T12:49:35.273Z,84.60
2019-01-24T12:50:40.772Z,83.70
2019-01-24T12:51:46.279Z,80.80
2019-01-24T12:52:51.776Z,82.20
2019-01-24T12:53:58.283Z,83.90
2019-01-24T12:55:02.808Z,82.70
2019-01-24T12:56:08.303Z,79.10
2019-01-24T12:57:13.786Z,78.20
2019-01-24T12:58:19.271Z,80.30
2019-01-24T12:59:24.768Z,81.50
2019-01-24T13:00:31.291Z,77.50
2019-01-24T13:01:35.809Z,78.30
2019-01-24T13:02:41.249Z,78.40
2019-01-24T13:03:46.782Z,77.10
2019-01-24T13:04:52.277Z,77.80
2019-01-24T13:05:57.793Z,76.50
2019-01-24T13:07:04.316Z,77.90
2019-01-24T13:08:08.785Z,78.40
2019-01-24T13:09:14.255Z,76.60
2019-01-24T13:10:19.780Z,77.30
2019-01-24T13:11:25.294Z,76.70
2019-01-24T13:12:30.816Z,75.30
2019-01-24T13:13:37.312Z,76.00
2019-01-24T13:14:41.807Z,76.80
2019-01-24T13:15:47.291Z,79.50
2019-01-24T13:16:52.805Z,79.50
2019-01-24T13:17:58.300Z,77.40
2019-01-24T13:19:03.834Z,79.20
2019-01-24T13:20:10.313Z,81.90
2019-01-24T13:21:14.801Z,75.80
2019-01-24T13:22:20.315Z,78.00
2019-01-24T13:23:25.811Z,78.70
2019-01-24T13:24:31.314Z,77.00
2019-01-24T13:25:36.871Z,77.60
2019-01-24T13:26:43.320Z,75.00
2019-01-24T13:27:47.819Z,77.90
2019-01-24T13:28:53.324Z,74.90
2019-01-24T13:29:58.829Z,76.40
2019-01-24T13:31:04.322Z,76.20
2019-01-24T13:32:09.806Z,74.70
2019-01-24T13:33:16.301Z,77.10
2019-01-24T13:34:20.832Z,76.90
2019-01-24T13:35:26.299Z,73.60
2019-01-24T13:36:31.827Z,74.00
2019-01-24T13:37:37.304Z,72.30
2019-01-24T13:38:42.850Z,73.00
2019-01-24T13:39:49.333Z,73.00
2019-01-24T13:40:53.789Z,70.60
2019-01-24T13:41:59.313Z,69.20
2019-01-24T13:43:04.819Z,71.30
2019-01-24T13:44:10.367Z,71.30
2019-01-24T13:45:15.813Z,73.60
2019-01-24T13:46:22.345Z,76.60
2019-01-24T13:47:26.825Z,74.50
2019-01-24T13:48:32.354Z,74.80
2019-01-24T13:49:37.845Z,70.10
2019-01-24T13:50:43.343Z,76.10
2019-01-24T13:51:48.836Z,73.20
2019-01-24T13:52:55.366Z,75.10
2019-01-24T13:53:59.842Z,74.60
2019-01-24T13:55:05.304Z,72.20
2019-01-24T13:56:10.844Z,70.70
2019-01-24T13:57:16.323Z,72.30
2019-01-24T13:58:21.836Z,71.20
2019-01-24T13:59:28.340Z,73.40
2019-01-24T14:00:32.868Z,71.80
2019-01-24T14:01:38.302Z,75.10
2019-01-24T14:02:43.859Z,71.80
2019-01-24T14:03:49.407Z,72.10